Главная страница
METAR-TAF:

METAR-TAF

Аэропорты :

Хартум, Судан

широта: 15-36N, долгота: 032-33E, высота над уровнем моря: 382 м

Текущие метеонаблюдения

Эта сводка был подготовлена 22 минут назад, в 01:00 UTC
Ветер 10 Узел от северный
Температура 30°C
Влажность 22%
Давление 1010 hPa
Видимость 10 км и более
Нет облачности ниже 1500 м, и нет кучево-дождевой облачности

METAR: HSSS 160100Z 36010KT CAVOK 30/06 Q1010 NOSIG

Время: 04:22 (01:22 UTC)

Прогноз

Эта сводка был подготовлена 2 часа и 22 минут назад, в 23:00 UTC
Прогноз действительный с 16-го 00 UTC до 17-го 06 UTC
Ветер 10 Узел от северно-северо-западный с порывами до 20 Узел
Видимость 10 км и более
Нет облачности ниже 1500 м, и нет кучево-дождевой облачности
Вероятность 30% :
временами
С 16-го 03 UTC до 16-го 06 UTC
Видимость: 6000 м

TAF: HSSS 152300Z 1600/1706 34010G20KT CAVOK PROB30 TEMPO 1603/1606 6000

Метеонаблюдения и прогнозы для более 4000 аэропортов (сводки METAR и TAF).

Имеющиеся станции представлены на карте желтыми и красными точками.

Чтобы увидеть название станции, наведите на нее мышь.

Затем щелкните, чтобы увидеть метеонаблюдения и метеопрогнозы.

Управление картой: чтобы увеличить масштаб, щелкните зеленые кнопки с черным крестиком; чтобы уменьшить масштаб, щелкните зеленую кнопку с тире; для просмотра соседних карт щелкайте зеленые стрелки.


METAR-TAF: